sensor_id;sensor_type;location;lat;lon;timestamp;temperature;humidity
64650;HTU21D;51061;45.258;38.112;2022-10-16T00:01:32;10.60;53.31
64650;HTU21D;51061;45.258;38.112;2022-10-16T00:04:00;10.60;53.39
64650;HTU21D;51061;45.258;38.112;2022-10-16T00:06:30;10.60;53.46
64650;HTU21D;51061;45.258;38.112;2022-10-16T00:08:57;10.58;53.50
64650;HTU21D;51061;45.258;38.112;2022-10-16T00:11:24;10.46;53.50
64650;HTU21D;51061;45.258;38.112;2022-10-16T00:13:55;10.49;53.57
64650;HTU21D;51061;45.258;38.112;2022-10-16T00:16:21;10.49;53.61
64650;HTU21D;51061;45.258;38.112;2022-10-16T00:18:47;10.48;53.72
64650;HTU21D;51061;45.258;38.112;2022-10-16T00:21:16;10.46;53.77
64650;HTU21D;51061;45.258;38.112;2022-10-16T00:24:05;10.46;53.84
64650;HTU21D;51061;45.258;38.112;2022-10-16T00:26:33;10.46;53.85
64650;HTU21D;51061;45.258;38.112;2022-10-16T00:28:59;10.44;53.93
64650;HTU21D;51061;45.258;38.112;2022-10-16T00:31:26;10.43;53.97
64650;HTU21D;51061;45.258;38.112;2022-10-16T00:33:53;10.43;54.01
64650;HTU21D;51061;45.258;38.112;2022-10-16T00:36:20;10.37;53.90
64650;HTU21D;51061;45.258;38.112;2022-10-16T00:38:47;10.37;53.94
64650;HTU21D;51061;45.258;38.112;2022-10-16T00:41:15;10.38;54.07
64650;HTU21D;51061;45.258;38.112;2022-10-16T00:43:48;10.38;54.16
64650;HTU21D;51061;45.258;38.112;2022-10-16T00:46:18;10.37;54.17
64650;HTU21D;51061;45.258;38.112;2022-10-16T00:51:24;10.35;54.36
64650;HTU21D;51061;45.258;38.112;2022-10-16T00:53:51;10.35;54.46
64650;HTU21D;51061;45.258;38.112;2022-10-16T00:56:18;10.34;54.50
64650;HTU21D;51061;45.258;38.112;2022-10-16T00:58:44;10.30;54.57
64650;HTU21D;51061;45.258;38.112;2022-10-16T01:01:10;10.31;54.62
64650;HTU21D;51061;45.258;38.112;2022-10-16T01:03:37;10.30;54.63
64650;HTU21D;51061;45.258;38.112;2022-10-16T01:11:35;10.23;54.88
64650;HTU21D;51061;45.258;38.112;2022-10-16T01:14:14;10.24;54.92
64650;HTU21D;51061;45.258;38.112;2022-10-16T01:16:52;10.25;54.92
64650;HTU21D;51061;45.258;38.112;2022-10-16T01:22:25;10.19;55.04
64650;HTU21D;51061;45.258;38.112;2022-10-16T01:24:55;10.20;55.11
64650;HTU21D;51061;45.258;38.112;2022-10-16T01:27:25;10.19;55.14
64650;HTU21D;51061;45.258;38.112;2022-10-16T01:30:07;10.21;55.23
64650;HTU21D;51061;45.258;38.112;2022-10-16T01:35:44;10.19;55.29
64650;HTU21D;51061;45.258;38.112;2022-10-16T01:38:38;10.20;55.36
64650;HTU21D;51061;45.258;38.112;2022-10-16T01:41:35;10.16;55.36
64650;HTU21D;51061;45.258;38.112;2022-10-16T01:44:10;10.18;55.55
64650;HTU21D;51061;45.258;38.112;2022-10-16T01:46:39;10.15;55.55
64650;HTU21D;51061;45.258;38.112;2022-10-16T01:49:07;10.16;55.60
64650;HTU21D;51061;45.258;38.112;2022-10-16T01:51:35;10.14;55.63
64650;HTU21D;51061;45.258;38.112;2022-10-16T01:54:05;10.13;55.74
64650;HTU21D;51061;45.258;38.112;2022-10-16T01:56:34;10.13;55.79
64650;HTU21D;51061;45.258;38.112;2022-10-16T01:59:18;10.14;55.78
64650;HTU21D;51061;45.258;38.112;2022-10-16T02:01:53;10.12;55.84
64650;HTU21D;51061;45.258;38.112;2022-10-16T02:04:32;10.09;55.92
64650;HTU21D;51061;45.258;38.112;2022-10-16T02:06:59;10.08;56.01
64650;HTU21D;51061;45.258;38.112;2022-10-16T02:09:25;10.07;56.12
64650;HTU21D;51061;45.258;38.112;2022-10-16T02:11:54;10.01;55.89
64650;HTU21D;51061;45.258;38.112;2022-10-16T02:14:23;10.03;55.94
64650;HTU21D;51061;45.258;38.112;2022-10-16T02:16:50;10.00;56.08
64650;HTU21D;51061;45.258;38.112;2022-10-16T02:19:17;10.00;56.16
64650;HTU21D;51061;45.258;38.112;2022-10-16T02:21:57;10.03;56.25
64650;HTU21D;51061;45.258;38.112;2022-10-16T02:29:31;10.01;56.40
64650;HTU21D;51061;45.258;38.112;2022-10-16T02:32:01;10.00;56.52
64650;HTU21D;51061;45.258;38.112;2022-10-16T02:34:29;10.00;56.57
64650;HTU21D;51061;45.258;38.112;2022-10-16T02:36:58;10.03;56.58
64650;HTU21D;51061;45.258;38.112;2022-10-16T02:39:27;10.03;56.66
64650;HTU21D;51061;45.258;38.112;2022-10-16T02:41:54;10.05;56.70
64650;HTU21D;51061;45.258;38.112;2022-10-16T02:44:20;10.04;56.68
64650;HTU21D;51061;45.258;38.112;2022-10-16T02:46:46;10.05;56.73
64650;HTU21D;51061;45.258;38.112;2022-10-16T02:49:12;10.03;56.77
64650;HTU21D;51061;45.258;38.112;2022-10-16T02:51:38;10.01;56.81
64650;HTU21D;51061;45.258;38.112;2022-10-16T02:54:04;10.01;56.84
64650;HTU21D;51061;45.258;38.112;2022-10-16T02:56:30;10.00;56.81
64650;HTU21D;51061;45.258;38.112;2022-10-16T02:58:57;10.01;56.92
64650;HTU21D;51061;45.258;38.112;2022-10-16T03:01:23;10.03;57.00
64650;HTU21D;51061;45.258;38.112;2022-10-16T03:03:49;9.92;56.88
64650;HTU21D;51061;45.258;38.112;2022-10-16T03:06:15;9.94;56.99
64650;HTU21D;51061;45.258;38.112;2022-10-16T03:08:41;9.93;57.12
64650;HTU21D;51061;45.258;38.112;2022-10-16T03:11:07;9.95;57.13
64650;HTU21D;51061;45.258;38.112;2022-10-16T03:13:33;9.95;57.19
64650;HTU21D;51061;45.258;38.112;2022-10-16T03:15:59;9.93;57.26
64650;HTU21D;51061;45.258;38.112;2022-10-16T03:18:25;9.93;57.32
64650;HTU21D;51061;45.258;38.112;2022-10-16T03:20:51;9.93;57.39
64650;HTU21D;51061;45.258;38.112;2022-10-16T03:23:17;9.92;57.46
64650;HTU21D;51061;45.258;38.112;2022-10-16T03:25:43;9.91;57.50
64650;HTU21D;51061;45.258;38.112;2022-10-16T03:28:09;9.92;57.48
64650;HTU21D;51061;45.258;38.112;2022-10-16T03:30:35;9.92;57.51
64650;HTU21D;51061;45.258;38.112;2022-10-16T03:33:01;9.93;57.55
64650;HTU21D;51061;45.258;38.112;2022-10-16T03:35:28;9.92;57.69
64650;HTU21D;51061;45.258;38.112;2022-10-16T03:37:54;9.89;57.78
64650;HTU21D;51061;45.258;38.112;2022-10-16T03:40:20;9.88;57.84
64650;HTU21D;51061;45.258;38.112;2022-10-16T03:42:46;9.88;57.90
64650;HTU21D;51061;45.258;38.112;2022-10-16T03:45:12;9.86;57.97
64650;HTU21D;51061;45.258;38.112;2022-10-16T03:47:38;9.85;58.08
64650;HTU21D;51061;45.258;38.112;2022-10-16T03:50:04;9.85;58.13
64650;HTU21D;51061;45.258;38.112;2022-10-16T03:52:31;9.88;58.16
64650;HTU21D;51061;45.258;38.112;2022-10-16T03:54:57;9.85;58.26
64650;HTU21D;51061;45.258;38.112;2022-10-16T03:57:24;9.86;58.29
64650;HTU21D;51061;45.258;38.112;2022-10-16T03:59:50;9.89;58.29
64650;HTU21D;51061;45.258;38.112;2022-10-16T04:02:16;9.90;58.32
64650;HTU21D;51061;45.258;38.112;2022-10-16T04:04:42;9.93;58.35
64650;HTU21D;51061;45.258;38.112;2022-10-16T04:07:08;9.94;58.41
64650;HTU21D;51061;45.258;38.112;2022-10-16T04:09:34;9.97;58.40
64650;HTU21D;51061;45.258;38.112;2022-10-16T04:12:00;9.99;58.38
64650;HTU21D;51061;45.258;38.112;2022-10-16T04:14:26;10.04;58.35
64650;HTU21D;51061;45.258;38.112;2022-10-16T04:16:52;10.07;58.45
64650;HTU21D;51061;45.258;38.112;2022-10-16T04:19:18;10.08;58.45
64650;HTU21D;51061;45.258;38.112;2022-10-16T04:21:44;10.09;58.51
64650;HTU21D;51061;45.258;38.112;2022-10-16T04:24:10;10.09;58.58
64650;HTU21D;51061;45.258;38.112;2022-10-16T04:26:37;10.04;58.41
64650;HTU21D;51061;45.258;38.112;2022-10-16T04:29:03;10.08;58.41
64650;HTU21D;51061;45.258;38.112;2022-10-16T04:31:29;10.11;58.45
64650;HTU21D;51061;45.258;38.112;2022-10-16T04:33:55;10.14;58.54
64650;HTU21D;51061;45.258;38.112;2022-10-16T04:36:21;10.19;58.51
64650;HTU21D;51061;45.258;38.112;2022-10-16T04:38:47;10.24;58.49
64650;HTU21D;51061;45.258;38.112;2022-10-16T04:41:13;10.28;58.59
64650;HTU21D;51061;45.258;38.112;2022-10-16T04:43:39;10.30;58.63
64650;HTU21D;51061;45.258;38.112;2022-10-16T04:46:05;10.34;58.67
64650;HTU21D;51061;45.258;38.112;2022-10-16T04:48:32;10.36;58.66
64650;HTU21D;51061;45.258;38.112;2022-10-16T04:50:58;10.33;58.47
64650;HTU21D;51061;45.258;38.112;2022-10-16T04:53:24;10.37;58.55
64650;HTU21D;51061;45.258;38.112;2022-10-16T04:55:50;10.39;58.70
64650;HTU21D;51061;45.258;38.112;2022-10-16T04:58:17;10.42;58.75
64650;HTU21D;51061;45.258;38.112;2022-10-16T05:00:44;10.49;58.80
64650;HTU21D;51061;45.258;38.112;2022-10-16T05:03:10;10.54;58.91
64650;HTU21D;51061;45.258;38.112;2022-10-16T05:05:36;10.60;58.93
64650;HTU21D;51061;45.258;38.112;2022-10-16T05:08:02;10.65;58.95
64650;HTU21D;51061;45.258;38.112;2022-10-16T05:10:28;10.77;58.87
64650;HTU21D;51061;45.258;38.112;2022-10-16T05:12:54;10.83;58.86
64650;HTU21D;51061;45.258;38.112;2022-10-16T05:15:20;10.88;58.97
64650;HTU21D;51061;45.258;38.112;2022-10-16T05:17:46;10.97;58.93
64650;HTU21D;51061;45.258;38.112;2022-10-16T05:20:12;11.04;58.87
64650;HTU21D;51061;45.258;38.112;2022-10-16T05:22:38;11.09;58.89
64650;HTU21D;51061;45.258;38.112;2022-10-16T05:25:05;11.18;58.88
64650;HTU21D;51061;45.258;38.112;2022-10-16T05:27:31;11.31;58.72
64650;HTU21D;51061;45.258;38.112;2022-10-16T05:29:57;11.46;58.58
64650;HTU21D;51061;45.258;38.112;2022-10-16T05:32:23;11.57;58.48
64650;HTU21D;51061;45.258;38.112;2022-10-16T05:34:50;11.71;58.38
64650;HTU21D;51061;45.258;38.112;2022-10-16T05:37:16;11.83;58.31
64650;HTU21D;51061;45.258;38.112;2022-10-16T05:39:42;11.92;58.26
64650;HTU21D;51061;45.258;38.112;2022-10-16T05:42:08;12.04;58.18
64650;HTU21D;51061;45.258;38.112;2022-10-16T05:44:35;12.15;58.12
64650;HTU21D;51061;45.258;38.112;2022-10-16T05:47:01;12.26;58.00
64650;HTU21D;51061;45.258;38.112;2022-10-16T05:49:27;12.36;57.98
64650;HTU21D;51061;45.258;38.112;2022-10-16T05:51:53;12.48;57.90
64650;HTU21D;51061;45.258;38.112;2022-10-16T05:54:19;12.61;57.79
64650;HTU21D;51061;45.258;38.112;2022-10-16T05:56:45;12.72;57.82
64650;HTU21D;51061;45.258;38.112;2022-10-16T05:59:11;12.80;57.73
64650;HTU21D;51061;45.258;38.112;2022-10-16T06:01:37;12.91;57.80
64650;HTU21D;51061;45.258;38.112;2022-10-16T06:04:03;13.04;57.65
64650;HTU21D;51061;45.258;38.112;2022-10-16T06:06:29;13.12;57.28
64650;HTU21D;51061;45.258;38.112;2022-10-16T06:08:56;13.24;57.27
64650;HTU21D;51061;45.258;38.112;2022-10-16T06:11:25;13.36;57.39
64650;HTU21D;51061;45.258;38.112;2022-10-16T06:13:57;13.51;57.35
64650;HTU21D;51061;45.258;38.112;2022-10-16T06:16:25;13.63;57.29
64650;HTU21D;51061;45.258;38.112;2022-10-16T06:18:55;13.76;57.37
64650;HTU21D;51061;45.258;38.112;2022-10-16T06:21:26;13.84;57.39
64650;HTU21D;51061;45.258;38.112;2022-10-16T06:23:54;13.96;57.41
64650;HTU21D;51061;45.258;38.112;2022-10-16T06:26:23;14.14;57.26
64650;HTU21D;51061;45.258;38.112;2022-10-16T06:28:50;14.25;57.19
64650;HTU21D;51061;45.258;38.112;2022-10-16T06:31:16;14.37;56.81
64650;HTU21D;51061;45.258;38.112;2022-10-16T06:33:42;14.44;56.86
64650;HTU21D;51061;45.258;38.112;2022-10-16T06:36:14;14.56;57.00
64650;HTU21D;51061;45.258;38.112;2022-10-16T06:38:41;14.65;56.87
64650;HTU21D;51061;45.258;38.112;2022-10-16T06:41:15;14.71;56.86
64650;HTU21D;51061;45.258;38.112;2022-10-16T06:43:42;14.75;56.92
64650;HTU21D;51061;45.258;38.112;2022-10-16T06:46:11;14.79;57.00
64650;HTU21D;51061;45.258;38.112;2022-10-16T06:48:38;14.85;56.97
64650;HTU21D;51061;45.258;38.112;2022-10-16T06:51:25;14.92;57.21
64650;HTU21D;51061;45.258;38.112;2022-10-16T06:53:53;14.97;57.06
64650;HTU21D;51061;45.258;38.112;2022-10-16T06:56:22;15.03;57.09
64650;HTU21D;51061;45.258;38.112;2022-10-16T06:58:49;15.12;57.24
64650;HTU21D;51061;45.258;38.112;2022-10-16T07:01:17;15.19;57.25
64650;HTU21D;51061;45.258;38.112;2022-10-16T07:03:45;15.25;57.16
64650;HTU21D;51061;45.258;38.112;2022-10-16T07:06:14;15.30;57.26
64650;HTU21D;51061;45.258;38.112;2022-10-16T07:08:42;15.39;57.21
64650;HTU21D;51061;45.258;38.112;2022-10-16T07:11:14;15.44;57.23
64650;HTU21D;51061;45.258;38.112;2022-10-16T07:13:42;15.46;57.39
64650;HTU21D;51061;45.258;38.112;2022-10-16T07:16:13;15.58;57.22
64650;HTU21D;51061;45.258;38.112;2022-10-16T07:18:40;15.75;57.06
64650;HTU21D;51061;45.258;38.112;2022-10-16T07:21:19;15.91;56.77
64650;HTU21D;51061;45.258;38.112;2022-10-16T07:23:52;16.05;56.54
64650;HTU21D;51061;45.258;38.112;2022-10-16T07:26:18;16.06;56.59
64650;HTU21D;51061;45.258;38.112;2022-10-16T07:28:45;16.17;56.55
64650;HTU21D;51061;45.258;38.112;2022-10-16T07:31:13;16.42;56.21
64650;HTU21D;51061;45.258;38.112;2022-10-16T07:33:40;16.62;55.80
64650;HTU21D;51061;45.258;38.112;2022-10-16T07:36:08;16.84;55.61
64650;HTU21D;51061;45.258;38.112;2022-10-16T07:38:34;17.08;55.17
64650;HTU21D;51061;45.258;38.112;2022-10-16T07:41:01;17.35;54.75
64650;HTU21D;51061;45.258;38.112;2022-10-16T07:43:29;17.46;54.58
64650;HTU21D;51061;45.258;38.112;2022-10-16T07:45:55;17.52;54.52
64650;HTU21D;51061;45.258;38.112;2022-10-16T07:48:23;17.67;54.32
64650;HTU21D;51061;45.258;38.112;2022-10-16T07:50:50;17.88;53.91
64650;HTU21D;51061;45.258;38.112;2022-10-16T07:53:16;18.03;53.64
64650;HTU21D;51061;45.258;38.112;2022-10-16T07:55:42;18.13;53.40
64650;HTU21D;51061;45.258;38.112;2022-10-16T07:58:08;18.29;53.08
64650;HTU21D;51061;45.258;38.112;2022-10-16T08:00:36;18.39;52.94
64650;HTU21D;51061;45.258;38.112;2022-10-16T08:03:03;18.50;52.67
64650;HTU21D;51061;45.258;38.112;2022-10-16T08:05:31;18.42;52.85
64650;HTU21D;51061;45.258;38.112;2022-10-16T08:07:58;18.53;52.74
64650;HTU21D;51061;45.258;38.112;2022-10-16T08:10:26;18.73;52.49
64650;HTU21D;51061;45.258;38.112;2022-10-16T08:12:55;19.15;51.93
64650;HTU21D;51061;45.258;38.112;2022-10-16T08:15:21;19.39;51.17
64650;HTU21D;51061;45.258;38.112;2022-10-16T08:17:58;19.67;50.94
64650;HTU21D;51061;45.258;38.112;2022-10-16T08:20:25;20.34;49.41
64650;HTU21D;51061;45.258;38.112;2022-10-16T08:22:51;20.86;47.96
64650;HTU21D;51061;45.258;38.112;2022-10-16T08:25:17;21.00;47.34
64650;HTU21D;51061;45.258;38.112;2022-10-16T08:27:43;21.31;47.31
64650;HTU21D;51061;45.258;38.112;2022-10-16T08:30:10;21.45;46.75
64650;HTU21D;51061;45.258;38.112;2022-10-16T08:32:37;21.14;47.13
64650;HTU21D;51061;45.258;38.112;2022-10-16T08:35:03;20.96;47.50
64650;HTU21D;51061;45.258;38.112;2022-10-16T08:37:32;20.70;48.23
64650;HTU21D;51061;45.258;38.112;2022-10-16T08:39:58;20.60;48.58
64650;HTU21D;51061;45.258;38.112;2022-10-16T08:42:51;20.34;48.60
64650;HTU21D;51061;45.258;38.112;2022-10-16T08:45:26;20.20;49.07
64650;HTU21D;51061;45.258;38.112;2022-10-16T08:50:52;19.67;49.90
64650;HTU21D;51061;45.258;38.112;2022-10-16T08:53:37;19.33;50.59
64650;HTU21D;51061;45.258;38.112;2022-10-16T08:56:06;19.13;51.16
64650;HTU21D;51061;45.258;38.112;2022-10-16T08:58:32;18.97;51.64
64650;HTU21D;51061;45.258;38.112;2022-10-16T09:00:59;18.81;51.85
64650;HTU21D;51061;45.258;38.112;2022-10-16T09:08:38;18.78;52.21
64650;HTU21D;51061;45.258;38.112;2022-10-16T09:14:49;18.85;52.29
64650;HTU21D;51061;45.258;38.112;2022-10-16T09:16:57;18.97;52.31
64650;HTU21D;51061;45.258;38.112;2022-10-16T09:19:31;19.09;52.20
64650;HTU21D;51061;45.258;38.112;2022-10-16T09:22:04;19.22;52.04
64650;HTU21D;51061;45.258;38.112;2022-10-16T09:24:34;19.39;51.69
64650;HTU21D;51061;45.258;38.112;2022-10-16T09:27:00;19.33;51.76
64650;HTU21D;51061;45.258;38.112;2022-10-16T09:29:26;19.41;51.85
64650;HTU21D;51061;45.258;38.112;2022-10-16T09:31:53;19.87;51.12
64650;HTU21D;51061;45.258;38.112;2022-10-16T09:36:56;20.37;49.98
64650;HTU21D;51061;45.258;38.112;2022-10-16T09:39:23;20.18;50.07
64650;HTU21D;51061;45.258;38.112;2022-10-16T09:41:49;19.95;50.50
64650;HTU21D;51061;45.258;38.112;2022-10-16T09:44:29;19.85;50.99
64650;HTU21D;51061;45.258;38.112;2022-10-16T09:47:14;20.30;50.05
64650;HTU21D;51061;45.258;38.112;2022-10-16T09:50:04;20.88;49.11
64650;HTU21D;51061;45.258;38.112;2022-10-16T09:52:32;21.42;47.92
64650;HTU21D;51061;45.258;38.112;2022-10-16T09:55:13;21.31;48.03
64650;HTU21D;51061;45.258;38.112;2022-10-16T09:57:50;21.03;48.59
64650;HTU21D;51061;45.258;38.112;2022-10-16T10:00:17;20.89;48.90
64650;HTU21D;51061;45.258;38.112;2022-10-16T10:02:44;20.78;49.01
64650;HTU21D;51061;45.258;38.112;2022-10-16T10:05:25;20.75;48.89
64650;HTU21D;51061;45.258;38.112;2022-10-16T10:07:59;20.74;49.14
64650;HTU21D;51061;45.258;38.112;2022-10-16T10:10:30;20.73;49.03
64650;HTU21D;51061;45.258;38.112;2022-10-16T10:12:57;20.71;49.19
64650;HTU21D;51061;45.258;38.112;2022-10-16T10:15:24;21.11;48.87
64650;HTU21D;51061;45.258;38.112;2022-10-16T10:17:54;21.89;47.20
64650;HTU21D;51061;45.258;38.112;2022-10-16T10:20:33;21.85;47.11
64650;HTU21D;51061;45.258;38.112;2022-10-16T10:23:01;21.64;47.36
64650;HTU21D;51061;45.258;38.112;2022-10-16T10:31:36;22.80;45.42
64650;HTU21D;51061;45.258;38.112;2022-10-16T10:37:02;22.48;45.61
64650;HTU21D;51061;45.258;38.112;2022-10-16T10:39:42;22.22;45.87
64650;HTU21D;51061;45.258;38.112;2022-10-16T10:44:52;21.82;46.80
64650;HTU21D;51061;45.258;38.112;2022-10-16T10:47:29;21.65;46.82
64650;HTU21D;51061;45.258;38.112;2022-10-16T10:52:51;21.69;46.57
64650;HTU21D;51061;45.258;38.112;2022-10-16T11:01:04;22.79;44.67
64650;HTU21D;51061;45.258;38.112;2022-10-16T11:06:28;22.37;45.24
64650;HTU21D;51061;45.258;38.112;2022-10-16T11:09:08;22.41;45.03
64650;HTU21D;51061;45.258;38.112;2022-10-16T11:11:49;22.53;44.83
64650;HTU21D;51061;45.258;38.112;2022-10-16T11:14:29;22.65;44.83
64650;HTU21D;51061;45.258;38.112;2022-10-16T11:17:03;23.49;43.44
64650;HTU21D;51061;45.258;38.112;2022-10-16T11:19:48;23.92;42.43
64650;HTU21D;51061;45.258;38.112;2022-10-16T11:27:34;24.42;41.33
64650;HTU21D;51061;45.258;38.112;2022-10-16T11:30:05;24.24;41.40
64650;HTU21D;51061;45.258;38.112;2022-10-16T11:37:57;23.18;42.87
64650;HTU21D;51061;45.258;38.112;2022-10-16T11:40:33;23.05;43.35
64650;HTU21D;51061;45.258;38.112;2022-10-16T11:43:37;23.22;43.39
64650;HTU21D;51061;45.258;38.112;2022-10-16T11:46:11;23.31;42.84
64650;HTU21D;51061;45.258;38.112;2022-10-16T11:51:33;22.92;43.37
64650;HTU21D;51061;45.258;38.112;2022-10-16T11:54:14;22.60;43.70
64650;HTU21D;51061;45.258;38.112;2022-10-16T11:56:45;22.25;44.39
64650;HTU21D;51061;45.258;38.112;2022-10-16T11:59:53;22.22;44.52
64650;HTU21D;51061;45.258;38.112;2022-10-16T12:08:15;21.63;45.20
64650;HTU21D;51061;45.258;38.112;2022-10-16T12:10:44;21.48;45.51
64650;HTU21D;51061;45.258;38.112;2022-10-16T12:13:38;21.32;45.78
64650;HTU21D;51061;45.258;38.112;2022-10-16T12:18:38;21.10;46.32
64650;HTU21D;51061;45.258;38.112;2022-10-16T12:21:05;21.00;46.55
64650;HTU21D;51061;45.258;38.112;2022-10-16T12:23:36;20.91;46.80
64650;HTU21D;51061;45.258;38.112;2022-10-16T12:26:03;20.88;46.96
64650;HTU21D;51061;45.258;38.112;2022-10-16T12:28:31;20.84;47.06
64650;HTU21D;51061;45.258;38.112;2022-10-16T12:31:04;20.81;47.08
64650;HTU21D;51061;45.258;38.112;2022-10-16T12:33:36;20.77;47.15
64650;HTU21D;51061;45.258;38.112;2022-10-16T12:36:28;20.68;47.36
64650;HTU21D;51061;45.258;38.112;2022-10-16T12:38:55;20.64;47.45
64650;HTU21D;51061;45.258;38.112;2022-10-16T12:41:29;20.59;47.57
64650;HTU21D;51061;45.258;38.112;2022-10-16T12:43:56;20.60;47.63
64650;HTU21D;51061;45.258;38.112;2022-10-16T12:46:43;20.54;47.73
64650;HTU21D;51061;45.258;38.112;2022-10-16T12:51:39;20.45;47.91
64650;HTU21D;51061;45.258;38.112;2022-10-16T12:54:13;20.37;47.99
64650;HTU21D;51061;45.258;38.112;2022-10-16T12:57:21;20.29;48.13
64650;HTU21D;51061;45.258;38.112;2022-10-16T13:08:00;20.18;48.44
64650;HTU21D;51061;45.258;38.112;2022-10-16T13:10:51;20.14;48.49
64650;HTU21D;51061;45.258;38.112;2022-10-16T13:16:23;20.04;48.78
64650;HTU21D;51061;45.258;38.112;2022-10-16T13:24:55;19.86;49.13
64650;HTU21D;51061;45.258;38.112;2022-10-16T13:30:22;19.67;49.39
64650;HTU21D;51061;45.258;38.112;2022-10-16T13:33:07;19.59;49.45
64650;HTU21D;51061;45.258;38.112;2022-10-16T13:35:53;19.50;49.61
64650;HTU21D;51061;45.258;38.112;2022-10-16T13:38:21;19.44;49.76
64650;HTU21D;51061;45.258;38.112;2022-10-16T13:41:15;19.38;49.76
64650;HTU21D;51061;45.258;38.112;2022-10-16T13:43:50;19.33;49.87
64650;HTU21D;51061;45.258;38.112;2022-10-16T13:46:22;19.31;49.98
64650;HTU21D;51061;45.258;38.112;2022-10-16T13:49:10;19.25;49.98
64650;HTU21D;51061;45.258;38.112;2022-10-16T13:51:37;19.24;50.11
64650;HTU21D;51061;45.258;38.112;2022-10-16T13:54:03;19.20;50.19
64650;HTU21D;51061;45.258;38.112;2022-10-16T13:56:31;19.15;50.27
64650;HTU21D;51061;45.258;38.112;2022-10-16T13:59:05;19.11;50.38
64650;HTU21D;51061;45.258;38.112;2022-10-16T14:01:35;19.07;50.44
64650;HTU21D;51061;45.258;38.112;2022-10-16T14:04:08;19.03;50.53
64650;HTU21D;51061;45.258;38.112;2022-10-16T14:06:36;19.00;50.65
64650;HTU21D;51061;45.258;38.112;2022-10-16T14:09:06;18.97;50.72
64650;HTU21D;51061;45.258;38.112;2022-10-16T14:11:33;18.92;50.88
64650;HTU21D;51061;45.258;38.112;2022-10-16T14:14:02;18.87;50.99
64650;HTU21D;51061;45.258;38.112;2022-10-16T14:16:30;18.82;50.95
64650;HTU21D;51061;45.258;38.112;2022-10-16T14:19:03;18.76;50.91
64650;HTU21D;51061;45.258;38.112;2022-10-16T14:21:32;18.70;51.08
64650;HTU21D;51061;45.258;38.112;2022-10-16T14:23:59;18.64;51.16
64650;HTU21D;51061;45.258;38.112;2022-10-16T14:26:42;18.56;51.10
64650;HTU21D;51061;45.258;38.112;2022-10-16T14:29:18;18.51;51.10
64650;HTU21D;51061;45.258;38.112;2022-10-16T14:32:20;18.39;51.17
64650;HTU21D;51061;45.258;38.112;2022-10-16T14:34:54;18.34;51.14
64650;HTU21D;51061;45.258;38.112;2022-10-16T14:37:26;18.29;51.22
64650;HTU21D;51061;45.258;38.112;2022-10-16T14:39:53;18.22;51.30
64650;HTU21D;51061;45.258;38.112;2022-10-16T14:42:22;18.19;51.24
64650;HTU21D;51061;45.258;38.112;2022-10-16T14:44:51;18.13;51.39
64650;HTU21D;51061;45.258;38.112;2022-10-16T14:47:21;18.07;51.40
64650;HTU21D;51061;45.258;38.112;2022-10-16T14:49:51;18.02;51.44
64650;HTU21D;51061;45.258;38.112;2022-10-16T14:52:18;17.95;51.46
64650;HTU21D;51061;45.258;38.112;2022-10-16T14:54:48;17.93;51.43
64650;HTU21D;51061;45.258;38.112;2022-10-16T14:57:23;17.88;51.49
64650;HTU21D;51061;45.258;38.112;2022-10-16T14:59:50;17.83;51.64
64650;HTU21D;51061;45.258;38.112;2022-10-16T15:02:29;17.78;51.61
64650;HTU21D;51061;45.258;38.112;2022-10-16T15:04:55;17.59;51.91
64650;HTU21D;51061;45.258;38.112;2022-10-16T15:07:22;17.62;51.95
64650;HTU21D;51061;45.258;38.112;2022-10-16T15:09:48;17.56;52.09
64650;HTU21D;51061;45.258;38.112;2022-10-16T15:12:14;17.51;52.13
64650;HTU21D;51061;45.258;38.112;2022-10-16T15:14:40;17.49;52.14
64650;HTU21D;51061;45.258;38.112;2022-10-16T15:17:08;17.32;52.25
64650;HTU21D;51061;45.258;38.112;2022-10-16T15:19:34;17.34;52.24
64650;HTU21D;51061;45.258;38.112;2022-10-16T15:22:00;17.31;52.26
64650;HTU21D;51061;45.258;38.112;2022-10-16T15:24:27;17.26;52.23
64650;HTU21D;51061;45.258;38.112;2022-10-16T15:26:53;17.22;52.24
64650;HTU21D;51061;45.258;38.112;2022-10-16T15:29:19;17.20;52.24
64650;HTU21D;51061;45.258;38.112;2022-10-16T15:31:45;17.17;52.32
64650;HTU21D;51061;45.258;38.112;2022-10-16T15:34:13;17.16;52.35
64650;HTU21D;51061;45.258;38.112;2022-10-16T15:36:42;17.14;52.42
64650;HTU21D;51061;45.258;38.112;2022-10-16T15:39:17;17.09;52.37
64650;HTU21D;51061;45.258;38.112;2022-10-16T15:41:47;17.04;52.53
64650;HTU21D;51061;45.258;38.112;2022-10-16T15:44:20;17.03;52.51
64650;HTU21D;51061;45.258;38.112;2022-10-16T15:46:48;16.99;52.68
64650;HTU21D;51061;45.258;38.112;2022-10-16T15:49:14;16.94;52.76
64650;HTU21D;51061;45.258;38.112;2022-10-16T15:51:41;16.91;52.84
64650;HTU21D;51061;45.258;38.112;2022-10-16T15:54:08;16.88;52.98
64650;HTU21D;51061;45.258;38.112;2022-10-16T15:56:37;16.85;53.01
64650;HTU21D;51061;45.258;38.112;2022-10-16T15:59:04;16.81;53.11
64650;HTU21D;51061;45.258;38.112;2022-10-16T16:01:34;16.78;53.17
64650;HTU21D;51061;45.258;38.112;2022-10-16T16:04:00;16.73;53.27
64650;HTU21D;51061;45.258;38.112;2022-10-16T16:06:27;16.71;53.36
64650;HTU21D;51061;45.258;38.112;2022-10-16T16:08:52;16.49;53.49
64650;HTU21D;51061;45.258;38.112;2022-10-16T16:11:19;16.55;53.56
64650;HTU21D;51061;45.258;38.112;2022-10-16T16:13:45;16.52;53.63
64650;HTU21D;51061;45.258;38.112;2022-10-16T16:16:13;16.36;53.72
64650;HTU21D;51061;45.258;38.112;2022-10-16T16:18:39;16.28;53.76
64650;HTU21D;51061;45.258;38.112;2022-10-16T16:21:05;16.31;53.91
64650;HTU21D;51061;45.258;38.112;2022-10-16T16:23:32;16.31;54.04
64650;HTU21D;51061;45.258;38.112;2022-10-16T16:26:05;16.31;53.97
64650;HTU21D;51061;45.258;38.112;2022-10-16T16:28:32;16.31;54.15
64650;HTU21D;51061;45.258;38.112;2022-10-16T16:30:57;16.17;54.07
64650;HTU21D;51061;45.258;38.112;2022-10-16T16:33:24;16.20;54.20
64650;HTU21D;51061;45.258;38.112;2022-10-16T16:35:50;16.19;54.36
64650;HTU21D;51061;45.258;38.112;2022-10-16T16:38:15;16.03;54.38
64650;HTU21D;51061;45.258;38.112;2022-10-16T16:40:42;16.11;54.39
64650;HTU21D;51061;45.258;38.112;2022-10-16T16:43:09;16.11;54.56
64650;HTU21D;51061;45.258;38.112;2022-10-16T16:45:35;16.11;54.60
64650;HTU21D;51061;45.258;38.112;2022-10-16T16:48:03;16.11;54.71
64650;HTU21D;51061;45.258;38.112;2022-10-16T16:50:35;16.10;54.68
64650;HTU21D;51061;45.258;38.112;2022-10-16T16:53:01;16.08;54.85
64650;HTU21D;51061;45.258;38.112;2022-10-16T16:55:27;16.07;54.82
64650;HTU21D;51061;45.258;38.112;2022-10-16T16:57:53;15.91;54.94
64650;HTU21D;51061;45.258;38.112;2022-10-16T17:00:19;15.99;54.94